Latest Weather Observations for Munglinup West

IDW60801

Issued at 6:43 am WST Friday 19 August 2022 (issued every 10 minutes, with the page automatically refreshed every 10 minutes)

About weather observations | Map of weather stations | Latest weather observations for WA | Other Formats
Station Details ID: 012044 Name: MUNGLINUP WEST Lat: -33.55 Lon: 120.70 Height: 220.0 m
Data from the previous 72 hours. | See also: Recent months at Munglinup West
Date/Time
WST
Temp
°C
App
Temp
°C
Dew
Point
°C
Rel
Hum
%
Delta-T
°C
Wind Press
QNH
hPa
Press
MSL
hPa
Rain since
9am
mm
Dir  Spd
km/h
Gust
km/h
Spd
kts
Gust
kts
19/06:30am 5.9 2.3 4.9 93 0.4 NW 13 17 7 9 1027.0 1027.1 0.0
19/06:00am 5.8 1.8 4.8 93 0.4 NW 15 19 8 10 1026.7 1026.7 0.0
19/05:30am 5.9 1.9 5.0 94 0.4 NW 15 19 8 10 1026.5 1026.5 0.0
19/05:00am 5.9 2.3 5.0 94 0.4 NW 13 17 7 9 1026.4 1026.4 0.0
19/04:30am 5.9 2.3 5.0 94 0.4 NW 13 19 7 10 1026.3 1026.3 0.0
19/04:00am 6.0 2.8 5.0 93 0.4 NW 11 17 6 9 1026.2 1026.2 0.0
19/03:30am 6.1 2.5 5.1 93 0.4 NW 13 17 7 9 1026.0 1026.0 0.0
19/03:00am 6.3 2.7 5.1 92 0.5 NW 13 19 7 10 1026.0 1026.0 0.0
19/02:30am 6.2 2.9 4.8 91 0.6 NW 11 17 6 9 1026.0 1026.0 0.0
19/02:00am 6.6 3.4 4.9 89 0.7 NW 11 13 6 7 1026.1 1026.1 0.0
19/01:30am 7.0 3.4 5.0 87 0.9 WNW 13 17 7 9 1026.1 1026.1 0.0
19/01:00am 7.7 3.8 5.2 84 1.1 WNW 15 22 8 12 1026.1 1026.1 0.0
19/12:30am 8.2 4.0 5.5 83 1.2 NW 17 22 9 12 1026.0 1026.0 0.0
19/12:00am 8.0 4.0 5.1 82 1.3 NW 15 28 8 15 1026.0 1026.0 0.0
 
Date/Time
WST
Temp
°C
App
Temp
°C
Dew
Point
°C
Rel
Hum
%
Delta-T
°C
Wind Press
QNH
hPa
Press
MSL
hPa
Rain since
9am
mm
Dir  Spd
km/h
Gust
km/h
Spd
kts
Gust
kts
18/11:30pm 8.2 3.9 5.1 81 1.4 NW 17 22 9 12 1026.2 1026.2 0.0
18/11:00pm 7.8 3.8 4.7 81 1.4 NW 15 19 8 10 1026.3 1026.3 0.0
18/10:30pm 7.4 3.7 4.7 83 1.2 NW 13 19 7 10 1026.2 1026.2 0.0
18/10:00pm 8.0 4.4 4.8 80 1.4 NW 13 19 7 10 1026.2 1026.2 0.0
18/09:30pm 8.2 5.0 5.0 80 1.4 NW 11 17 6 9 1026.3 1026.3 0.0
18/09:00pm 8.8 5.2 5.2 78 1.6 NW 13 20 7 11 1026.3 1026.3 0.0
18/08:30pm 8.7 5.5 5.1 78 1.6 NW 11 15 6 8 1026.3 1026.3 0.0
18/08:00pm 9.2 5.9 4.6 73 2.1 NW 11 15 6 8 1026.4 1026.4 0.0
18/07:30pm 9.6 6.3 4.6 71 2.3 NW 11 13 6 7 1026.3 1026.3 0.0
18/07:00pm 10.1 7.2 4.5 68 2.5 NW 9 13 5 7 1026.0 1026.0 0.0
18/06:30pm 10.4 7.4 4.1 65 2.8 NW 9 13 5 7 1025.9 1025.9 0.0
18/06:00pm 11.6 8.3 4.3 61 3.3 WNW 11 15 6 8 1025.7 1025.7 0.0
18/05:30pm 11.8 8.2 4.8 62 3.2 W 13 17 7 9 1025.4 1025.4 0.0
18/05:00pm 12.6 8.7 5.3 61 3.4 W 15 20 8 11 1025.2 1025.2 0.0
18/04:30pm 13.6 10.3 6.2 61 3.6 W 13 17 7 9 1024.8 1024.8 0.0
18/04:00pm 13.7 9.6 6.1 60 3.6 W 17 24 9 13 1024.8 1024.8 0.0
18/03:30pm 15.4 9.8 5.3 51 4.8 W 24 33 13 18 1024.7 1024.7 0.0
18/03:00pm 15.4 9.7 5.0 50 4.9 W 24 35 13 19 1024.5 1024.5 0.0
18/02:30pm 16.0 11.2 5.6 50 5.0 W 20 30 11 16 1024.0 1024.1 0.0
18/02:00pm 15.4 10.4 4.8 49 5.0 W 20 30 11 16 1024.2 1024.3 0.0
18/01:30pm 15.2 9.8 4.3 48 5.1 W 22 32 12 17 1024.2 1024.3 0.0
18/01:00pm 15.2 10.5 6.0 54 4.5 WSW 20 30 11 16 1024.3 1024.4 0.0
18/12:30pm 14.6 9.2 4.3 50 4.8 WSW 22 32 12 17 1024.7 1024.7 0.0
18/12:00pm 14.1 8.9 5.7 57 4.0 W 22 35 12 19 1025.0 1025.0 0.0
18/11:30am 13.6 7.7 6.0 60 3.7 WSW 26 35 14 19 1025.1 1025.1 0.0
18/11:00am 13.1 7.4 6.5 64 3.2 WSW 26 35 14 19 1025.2 1025.2 0.0
18/10:30am 12.4 7.5 5.1 61 3.4 WSW 20 33 11 18 1025.1 1025.1 0.0
18/10:00am 11.8 7.2 6.5 70 2.5 WSW 20 28 11 15 1024.9 1024.9 0.0
18/09:30am 11.0 6.4 6.4 73 2.2 W 20 28 11 15 1024.8 1024.8 0.0
18/09:00am 9.6 5.8 6.0 78 1.7 W 15 22 8 12 1024.5 1024.5 3.0
18/08:30am 8.1 5.0 5.7 85 1.1 WNW 11 19 6 10 1024.2 1024.3 3.0
18/08:00am 6.2 3.7 4.8 91 0.6 NW 7 11 4 6 1024.1 1024.2 3.0
18/07:30am 5.1 2.1 4.1 93 0.4 NW 9 13 5 7 1023.7 1023.8 3.0
18/07:00am 4.1 0.9 3.2 94 0.4 NW 9 13 5 7 1023.2 1023.3 3.0
18/06:30am 3.6 0.0 2.7 94 0.4 NNW 11 17 6 9 1022.6 1022.6 3.0
18/06:00am 3.7 0.5 2.8 94 0.4 NW 9 17 5 9 1022.2 1022.2 3.0
18/05:30am 4.2 0.3 3.2 93 0.4 NW 13 19 7 10 1021.8 1021.8 3.0
18/05:00am 4.6 1.1 3.6 93 0.4 WNW 11 17 6 9 1021.4 1021.4 3.0
18/04:30am 5.0 1.2 4.0 93 0.4 WNW 13 19 7 10 1021.0 1021.0 3.0
18/04:00am 5.0 1.2 4.0 93 0.4 WNW 13 17 7 9 1020.7 1020.7 3.0
18/03:30am 5.1 1.7 4.1 93 0.4 WNW 11 17 6 9 1020.4 1020.4 3.0
18/03:00am 5.5 2.6 4.5 93 0.4 WNW 9 13 5 7 1020.0 1020.0 2.8
18/02:30am 6.4 3.2 5.2 92 0.5 WNW 11 15 6 8 1019.5 1019.6 2.8
18/02:00am 7.0 3.6 5.9 93 0.5 W 13 17 7 9 1019.3 1019.4 2.8
18/01:30am 6.8 3.4 5.7 93 0.5 W 13 19 7 10 1019.1 1019.1 2.8
18/01:00am 7.0 3.6 5.9 93 0.5 W 13 17 7 9 1018.7 1018.7 2.6
18/12:30am 7.2 3.1 6.1 93 0.5 W 17 22 9 12 1018.2 1018.2 2.6
18/12:00am 7.0 2.8 5.9 93 0.5 W 17 26 9 14 1017.9 1017.9 2.6
 
Date/Time
WST
Temp
°C
App
Temp
°C
Dew
Point
°C
Rel
Hum
%
Delta-T
°C
Wind Press
QNH
hPa
Press
MSL
hPa
Rain since
9am
mm
Dir  Spd
km/h
Gust
km/h
Spd
kts
Gust
kts
17/11:30pm 6.6 2.8 5.6 93 0.4 W 15 20 8 11 1017.6 1017.6 2.4
17/11:00pm 7.0 3.6 5.8 92 0.5 W 13 17 7 9 1017.1 1017.1 2.4
17/10:30pm 7.7 3.7 6.8 94 0.4 W 17 26 9 14 1017.0 1017.0 2.4
17/10:00pm 7.8 5.4 7.1 95 0.3 WNW 9 13 5 7 1016.5 1016.5 2.4
17/09:30pm 7.6 5.5 6.7 94 0.4 W 7 9 4 5 1015.8 1015.8 2.4
17/09:00pm 8.1 5.4 7.2 94 0.4 WSW 11 17 6 9 1015.7 1015.7 2.4
17/08:30pm 7.7 5.3 6.8 94 0.4 WSW 9 19 5 10 1015.4 1015.4 1.6
17/08:00pm 7.0 4.8 6.1 94 0.4 NW 7 9 4 5 1014.6 1014.6 1.6
17/07:30pm 7.1 5.5 6.2 94 0.4 WNW 4 6 2 3 1014.0 1014.0 1.6
17/07:00pm 7.2 6.3 6.1 93 0.5 CALM 0 2 0 1 1013.6 1013.6 1.6
17/06:30pm 7.5 5.5 6.3 92 0.6 WSW 6 7 3 4 1013.5 1013.5 1.6
17/06:00pm 8.1 4.8 6.6 90 0.7 SW 13 17 7 9 1013.1 1013.1 1.6
17/05:30pm 8.3 5.5 6.8 90 0.7 WSW 11 17 6 9 1012.7 1012.7 1.6
17/05:00pm 9.2 5.7 7.0 86 1.0 WSW 15 24 8 13 1011.9 1011.9 1.6
17/04:30pm 9.8 7.4 8.6 92 0.6 WSW 11 20 6 11 1011.6 1011.6 1.4
17/04:00pm 9.4 4.3 7.7 89 0.8 SW 24 37 13 20 1011.2 1011.1 1.0
17/03:36pm 10.9 3.7 5.7 70 2.4 SW 33 54 18 29 1010.7 1010.6 0.0
17/03:30pm 12.2 5.3 4.7 60 3.5 WSW 30 48 16 26 1010.0 1010.0 0.0
17/03:00pm 14.6 8.5 4.9 52 4.6 W 26 41 14 22 1009.3 1009.3 0.0
17/02:30pm 14.3 8.2 6.4 59 3.8 W 28 43 15 23 1009.0 1009.0 0.0
17/02:00pm 14.1 6.9 6.0 58 3.9 W 33 44 18 24 1008.8 1008.8 0.0
17/01:30pm 14.7 8.6 5.0 52 4.6 WNW 26 39 14 21 1008.3 1008.3 0.0
17/01:00pm 14.2 6.5 5.3 55 4.2 W 35 48 19 26 1008.2 1008.2 0.0
17/12:30pm 14.3 7.6 5.4 55 4.2 W 30 44 16 24 1008.2 1008.2 0.0
17/12:11pm 15.1 7.9 6.1 55 4.4 W 33 56 18 30 1008.3 1008.3 0.0
17/12:00pm 14.6 7.5 5.4 54 4.4 W 32 43 17 23 1008.4 1008.4 0.0
17/11:30am 14.6 8.2 6.9 60 3.8 WNW 30 44 16 24 1008.2 1008.2 0.0
17/11:07am 14.3 8.2 6.6 60 3.8 WNW 28 48 15 26 1008.3 1008.3 0.0
17/11:00am 14.0 7.5 6.6 61 3.6 WNW 30 46 16 25 1008.3 1008.3 0.0
17/10:31am 13.6 7.1 6.7 63 3.4 WNW 30 48 16 26 1008.5 1008.5 0.0
17/10:30am 13.7 7.6 6.6 62 3.5 WNW 28 44 15 24 1008.4 1008.4 0.0
17/10:20am 13.7 7.7 7.2 65 3.2 WNW 28 46 15 25 1008.3 1008.3 0.0
17/10:00am 12.8 6.5 7.3 69 2.7 WNW 30 43 16 23 1008.0 1008.0 0.0
17/09:33am 12.4 6.5 7.7 73 2.3 WNW 28 48 15 26 1007.8 1007.8 0.0
17/09:30am 12.4 6.7 8.3 76 2.1 WNW 28 44 15 24 1007.9 1007.9 0.0
17/09:00am 11.7 6.4 8.6 81 1.6 WNW 26 39 14 21 1007.8 1007.8 5.2
17/08:30am 10.4 5.5 8.3 87 1.0 NW 24 37 13 20 1007.4 1007.3 5.2
17/08:00am 9.2 4.6 8.0 92 0.6 NW 22 35 12 19 1007.0 1006.9 5.2
17/07:30am 10.1 4.8 8.5 90 0.8 NW 26 39 14 21 1007.0 1006.9 4.4
17/07:00am 10.8 6.3 8.7 87 1.1 NW 22 33 12 18 1006.5 1006.4 3.8
17/06:30am 10.7 6.2 8.5 86 1.1 NW 22 39 12 21 1006.1 1006.0 3.8
17/06:00am 10.5 6.3 8.4 87 1.0 NW 20 32 11 17 1005.9 1005.8 3.8
17/05:30am 10.2 7.0 8.3 88 0.9 NNW 15 22 8 12 1005.8 1005.7 3.8
17/05:00am 9.8 7.7 8.1 89 0.8 NW 9 15 5 8 1005.5 1005.4 3.8
17/04:30am 9.8 7.7 8.1 89 0.8 NW 9 15 5 8 1005.6 1005.5 3.8
17/04:00am 10.3 6.8 8.6 89 0.8 NW 17 32 9 17 1005.5 1005.4 3.8
17/03:30am 10.0 7.3 8.8 92 0.6 NW 13 24 7 13 1005.2 1005.2 3.8
17/03:00am 9.8 7.4 8.7 93 0.5 NW 11 17 6 9 1005.3 1005.3 3.8
17/02:30am 10.0 7.7 9.1 94 0.5 NW 11 19 6 10 1005.8 1005.7 3.8
17/02:00am 10.0 8.1 9.1 94 0.5 NNW 9 13 5 7 1006.1 1006.0 3.8
17/01:30am 10.1 8.2 9.2 94 0.5 NNW 9 15 5 8 1006.6 1006.5 3.8
17/01:00am 9.8 8.2 8.7 93 0.5 NNW 7 13 4 7 1006.7 1006.6 3.8
17/12:30am 9.8 8.2 8.6 92 0.6 NW 7 9 4 5 1006.7 1006.6 3.8
17/12:00am 10.4 8.5 9.2 92 0.6 WNW 9 15 5 8 1006.6 1006.5 3.8
 
Date/Time
WST
Temp
°C
App
Temp
°C
Dew
Point
°C
Rel
Hum
%
Delta-T
°C
Wind Press
QNH
hPa
Press
MSL
hPa
Rain since
9am
mm
Dir  Spd
km/h
Gust
km/h
Spd
kts
Gust
kts
16/11:30pm 10.9 9.2 9.8 93 0.6 NW 9 13 5 7 1006.7 1006.6 3.8
16/11:00pm 11.1 9.1 10.0 93 0.6 NW 11 15 6 8 1007.1 1007.0 3.6
16/10:30pm 11.1 9.4 9.9 92 0.6 NW 9 15 5 8 1007.0 1006.9 3.6
16/10:00pm 11.5 9.5 10.1 91 0.7 NNW 11 15 6 8 1007.1 1007.0 3.6
16/09:30pm 12.1 10.3 10.7 91 0.7 NW 11 19 6 10 1007.0 1006.9 3.6
16/09:00pm 12.4 11.0 11.0 91 0.7 NNW 9 13 5 7 1007.2 1007.1 3.6
16/08:30pm 12.5 10.8 11.1 91 0.7 NNW 11 17 6 9 1007.1 1007.0 3.6
16/08:00pm 12.7 11.0 11.1 90 0.9 NNW 11 17 6 9 1006.9 1006.8 3.6
16/07:30pm 12.6 10.9 11.2 91 0.7 NNW 11 17 6 9 1007.0 1006.9 3.6
16/07:00pm 12.6 10.9 11.2 91 0.7 NW 11 17 6 9 1006.6 1006.5 3.6
16/06:30pm 12.6 11.3 11.2 91 0.7 NW 9 13 5 7 1006.4 1006.3 3.6
16/06:00pm 13.0 11.0 11.4 90 0.9 WNW 13 20 7 11 1006.1 1006.0 3.6
16/05:30pm 13.9 12.2 12.6 92 0.7 WNW 13 19 7 10 1006.2 1006.1 3.6
16/05:00pm 14.1 13.0 13.0 93 0.6 WNW 11 15 6 8 1005.5 1005.4 3.6
16/04:30pm 14.2 13.1 13.1 93 0.6 W 11 15 6 8 1004.9 1004.9 3.6
16/04:00pm 14.5 11.3 13.2 92 0.7 W 22 33 12 18 1004.3 1004.3 3.4
16/03:30pm 15.6 13.3 14.6 94 0.6 WNW 20 32 11 17 1003.9 1003.9 3.0
16/03:00pm 16.0 15.1 14.9 93 0.6 NW 13 20 7 11 1003.3 1003.2 2.0
16/02:30pm 15.3 12.9 14.3 94 0.6 NW 20 32 11 17 1003.3 1003.2 1.8
16/02:00pm 15.3 12.8 14.2 93 0.6 WNW 20 35 11 19 1003.0 1002.9 1.0
16/01:30pm 15.7 11.7 14.2 91 0.9 W 28 41 15 22 1003.1 1003.0 0.8
16/01:00pm 18.4 14.9 14.5 78 2.3 NW 26 41 14 22 1002.7 1002.6 0.6
16/12:30pm 18.4 15.4 14.7 79 2.2 NW 24 39 13 21 1003.3 1003.2 0.6
16/12:04pm 18.5 14.6 14.4 77 2.4 NW 28 46 15 25 1003.2 1003.1 0.6
16/12:00pm 18.6 15.1 14.5 77 2.4 NW 26 46 14 25 1003.2 1003.1 0.6
16/11:48am 18.5 14.7 14.6 78 2.3 NW 28 48 15 26 1003.5 1003.4 0.6
16/11:30am 18.4 15.1 15.1 81 1.9 NW 26 41 14 22 1003.4 1003.3 0.6
16/11:00am 18.1 15.0 14.6 80 2.1 NW 24 39 13 21 1003.4 1003.3 0.6
16/10:30am 17.5 14.6 15.1 86 1.4 NW 24 39 13 21 1004.0 1004.0 0.6
16/10:00am 18.1 15.4 15.7 86 1.4 NW 24 37 13 20 1003.8 1003.8 0.4
16/09:30am 17.5 15.7 16.0 91 0.9 NNW 20 35 11 19 1003.8 1003.8 0.4
16/09:00am 17.9 14.7 15.3 85 1.5 NNW 26 41 14 22 1003.7 1003.6 5.4
16/08:30am 17.7 14.7 15.9 89 1.1 N 26 39 14 21 1003.3 1003.2 5.4
16/08:07am 17.1 13.6 15.6 91 0.9 N 28 46 15 25 1003.1 1003.0 5.4
16/08:00am 16.7 13.2 15.4 92 0.8 N 28 44 15 24 1003.1 1003.0 5.4
16/07:42am 16.2 12.2 15.1 93 0.6 N 30 48 16 26 1002.7 1002.6 5.4
16/07:30am 15.9 11.8 14.8 93 0.6 N 30 44 16 24 1002.8 1002.7 5.4
16/07:00am 15.2 11.3 14.4 95 0.5 NNE 28 46 15 25 1002.5 1002.4 5.4

Other formats

Comma delimited format used in spreadsheet applications
http://www.bom.gov.au/fwo/IDW60801/IDW60801.95644.axf

JavaScript Object Notation format (JSON) in row-major order
http://www.bom.gov.au/fwo/IDW60801/IDW60801.95644.json

Data quality

Most of these data are generated automatically and are frequently updated. Quality checks on data are not normally performed. It is possible for incorrect values to appear. Refer to information at About Latest Weather Observations and please check the disclaimer before using these data.